Time;durP1;ratioP1;P1;durP2;ratioP2;P2;SDS_P1;SDS_P2;PMS_P1;PMS_P2;Temp;Humidity;BMP_temperature;BMP_pressure;BME280_temperature;BME280_humidity;BME280_pressure;Samples;Min_cycle;Max_cycle;Signal;HPM_P1;HPM_P2
2022/05/21 00:03:57;;;;;;;5.45;2.90;;;;;;;20.60;92.21;99621.55;2934870;79;21498;-80
2022/05/21 00:07:58;;;;;;;7.10;5.15;;;;;;;20.54;92.49;99616.99;2963880;80;21046;-80
2022/05/21 00:12:00;;;;;;;4.87;3.90;;;;;;;20.54;92.37;99625.94;2943847;79;21038;-80
2022/05/21 00:16:02;;;;;;;4.92;4.03;;;;;;;20.48;92.36;99625.94;2943544;79;21522;-80
2022/05/21 00:20:07;;;;;;;6.65;4.17;;;;;;;20.45;92.34;99620.95;2934696;80;21031;-81
2022/05/21 00:24:08;;;;;;;7.45;2.90;;;;;;;20.39;92.47;99623.42;2962511;79;21011;-80
2022/05/21 00:28:09;;;;;;;5.50;2.58;;;;;;;20.38;92.03;99619.06;2933612;80;21015;-81
2022/05/21 00:32:11;;;;;;;2.75;1.72;;;;;;;20.37;91.97;99614.70;2940698;80;20991;-80
2022/05/21 00:36:13;;;;;;;6.00;1.90;;;;;;;20.34;91.88;99615.11;2941040;79;21149;-80
2022/05/21 00:40:15;;;;;;;2.40;1.70;;;;;;;20.27;91.92;99611.59;2918092;81;21041;-80
2022/05/21 00:44:16;;;;;;;2.65;2.30;;;;;;;20.24;92.12;99615.52;2855085;83;21019;-80
2022/05/21 00:48:17;;;;;;;6.55;2.40;;;;;;;20.25;92.27;99617.72;2894237;80;21014;-81
2022/05/21 00:52:23;;;;;;;3.22;1.75;;;;;;;20.22;92.10;99617.59;2899542;80;21010;-81
2022/05/21 00:56:26;;;;;;;7.58;2.27;;;;;;;20.19;91.93;99623.41;2949226;79;21568;-81
2022/05/21 01:00:27;;;;;;;4.72;2.05;;;;;;;20.19;91.89;99626.12;2921423;79;21074;-81
2022/05/21 01:04:32;;;;;;;2.27;1.57;;;;;;;20.23;91.56;99616.56;2917057;80;21555;-81
2022/05/21 01:08:33;;;;;;;2.10;1.65;;;;;;;20.23;90.77;99622.47;2899461;80;21039;-81
2022/05/21 01:12:39;;;;;;;8.68;1.87;;;;;;;20.22;90.26;99638.36;2935302;80;20996;-81
2022/05/21 01:16:41;;;;;;;4.42;1.70;;;;;;;20.23;90.07;99642.22;2911415;80;21042;-81
2022/05/21 01:20:48;;;;;;;4.70;2.62;;;;;;;20.23;89.96;99650.81;2910779;80;21069;-81
2022/05/21 01:24:49;;;;;;;1.72;1.60;;;;;;;20.21;90.01;99656.94;2948685;79;21056;-81
2022/05/21 01:28:51;;;;;;;3.90;2.17;;;;;;;20.28;89.52;99662.36;2932627;80;21039;-81
2022/05/21 01:32:52;;;;;;;4.08;1.90;;;;;;;20.32;89.05;99659.56;2879480;80;21482;-81
2022/05/21 01:36:53;;;;;;;1.77;1.60;;;;;;;20.34;89.22;99666.43;2843632;81;21040;-81
2022/05/21 01:40:57;;;;;;;2.70;2.47;;;;;;;20.34;89.71;99678.58;2911270;80;21550;-81
2022/05/21 01:44:58;;;;;;;5.75;3.08;;;;;;;20.37;89.56;99695.72;2856662;81;21547;-81
2022/05/21 01:49:00;;;;;;;7.70;2.40;;;;;;;20.37;89.56;99699.77;2947197;80;21023;-81
2022/05/21 01:53:01;;;;;;;5.90;2.75;;;;;;;20.47;89.25;99707.48;2887810;82;21436;-81
2022/05/21 01:57:04;;;;;;;4.25;2.42;;;;;;;20.61;87.81;99715.61;2923388;80;21007;-81
2022/05/21 02:01:07;;;;;;;8.25;2.75;;;;;;;20.61;87.82;99717.78;2841949;83;21086;-81
2022/05/21 02:05:09;;;;;;;4.92;2.95;;;;;;;20.55;85.95;99718.11;2968817;79;20948;-81
2022/05/21 02:09:11;;;;;;;3.22;2.08;;;;;;;20.63;86.14;99741.37;2933724;79;21075;-81
2022/05/21 02:13:20;;;;;;;3.40;2.67;;;;;;;20.54;85.60;99754.77;2846321;79;21030;-81
2022/05/21 02:17:22;;;;;;;4.85;2.47;;;;;;;20.48;85.86;99768.56;2903787;81;21010;-81
2022/05/21 02:21:24;;;;;;;5.85;3.17;;;;;;;20.52;85.24;99787.91;2898331;81;21054;-81
2022/05/21 02:25:25;;;;;;;6.08;3.40;;;;;;;20.47;84.90;99783.64;2947322;78;21412;-81
2022/05/21 02:29:26;;;;;;;3.75;3.17;;;;;;;20.39;85.05;99796.28;2963474;79;21026;-81
2022/05/21 02:33:28;;;;;;;7.45;4.05;;;;;;;20.22;84.61;99804.42;2895875;80;20983;-81
2022/05/21 02:41:49;;;;;;;16.12;3.83;;;;;;;19.99;85.94;99810.96;2962076;80;21058;-81
2022/05/21 02:45:51;;;;;;;5.03;3.37;;;;;;;19.90;86.44;99828.33;2962264;80;21459;-81
2022/05/21 02:49:52;;;;;;;4.60;3.45;;;;;;;19.79;86.11;99837.28;2936799;80;21386;-81
2022/05/21 02:53:53;;;;;;;4.53;2.20;;;;;;;19.60;85.86;99833.93;2968293;79;21070;-81
2022/05/21 02:57:56;;;;;;;3.30;2.00;;;;;;;19.44;82.87;99851.25;2931140;79;21602;-82
2022/05/21 03:01:57;;;;;;;1.75;1.57;;;;;;;19.16;79.57;99860.95;2910561;80;21058;-82
2022/05/21 03:05:59;;;;;;;5.83;1.32;;;;;;;18.97;78.40;99857.02;2878402;81;21107;-81
2022/05/21 03:14:19;;;;;;;3.17;1.98;;;;;;;18.47;76.47;99885.97;2893094;82;21555;-81
2022/05/21 03:18:21;;;;;;;5.33;1.30;;;;;;;18.32;77.04;99868.49;2940937;80;21051;-81
2022/05/21 03:22:23;;;;;;;1.07;0.78;;;;;;;18.17;78.04;99926.34;2887277;82;21046;-81
2022/05/21 03:26:24;;;;;;;1.05;0.82;;;;;;;18.02;78.57;99935.77;2868081;80;21051;-81
2022/05/21 03:30:29;;;;;;;2.42;1.72;;;;;;;17.94;78.93;99922.37;2870235;82;21020;-80
2022/05/21 03:34:31;;;;;;;1.42;1.32;;;;;;;17.81;79.32;99913.05;2940353;79;21027;-80
2022/05/21 03:38:32;;;;;;;0.95;0.95;;;;;;;17.68;79.58;99919.55;2885175;82;21535;-80
2022/05/21 03:42:34;;;;;;;1.90;1.20;;;;;;;17.58;79.98;99924.36;2921680;80;20999;-80
2022/05/21 03:46:38;;;;;;;2.15;1.20;;;;;;;17.45;79.30;99914.22;2884716;82;21027;-80
2022/05/21 03:50:38;;;;;;;1.98;1.35;;;;;;;17.43;79.24;99940.45;2924207;80;21019;-80
2022/05/21 03:54:40;;;;;;;3.58;1.20;;;;;;;17.43;79.55;99957.41;2893060;82;21543;-80
2022/05/21 03:58:41;;;;;;;1.60;1.17;;;;;;;17.41;79.87;99956.75;2910783;81;21004;-80
2022/05/21 04:02:43;;;;;;;2.05;1.80;;;;;;;17.38;80.21;99969.21;2818604;80;21028;-81
2022/05/21 04:06:44;;;;;;;2.42;1.67;;;;;;;17.54;80.87;99982.55;2921134;79;20995;-80
2022/05/21 04:10:48;;;;;;;3.58;1.65;;;;;;;17.74;80.97;99980.72;2951914;80;21045;-81
2022/05/21 04:14:49;;;;;;;1.02;0.98;;;;;;;17.94;79.41;99978.87;2953871;79;21014;-81
2022/05/21 04:18:50;;;;;;;0.98;0.62;;;;;;;18.02;74.86;99986.89;2899818;78;21494;-80
2022/05/21 04:22:52;;;;;;;3.60;0.55;;;;;;;18.56;72.49;99979.63;2921415;79;20963;-80
2022/05/21 04:26:53;;;;;;;3.60;0.78;;;;;;;18.95;68.68;99989.25;2966210;79;21597;-80
2022/05/21 04:30:54;;;;;;;1.40;0.75;;;;;;;19.24;67.06;99983.48;2893778;81;21058;-80
2022/05/21 04:34:56;;;;;;;7.05;0.72;;;;;;;19.62;66.10;99982.94;2877516;81;21014;-80
2022/05/21 04:38:58;;;;;;;5.58;0.53;;;;;;;19.88;66.11;100023.37;2868228;83;21053;-80
2022/05/21 04:42:59;;;;;;;6.28;1.02;;;;;;;19.51;65.00;100026.95;2961142;79;21098;-80
2022/05/21 04:47:02;;;;;;;5.80;0.80;;;;;;;19.55;65.62;100026.88;2961533;79;21581;-80
2022/05/21 04:51:05;;;;;;;0.72;0.20;;;;;;;19.65;64.36;100038.71;2967408;79;21029;-80
2022/05/21 04:55:09;;;;;;;1.30;0.40;;;;;;;19.72;63.57;100038.78;2967826;80;21010;-80
2022/05/21 04:59:12;;;;;;;0.95;0.40;;;;;;;19.84;63.63;100050.72;2925959;80;21004;-81
2022/05/21 05:03:17;;;;;;;1.12;0.68;;;;;;;19.52;63.81;100046.16;2938204;80;21107;-80
2022/05/21 05:07:19;;;;;;;1.42;0.42;;;;;;;19.59;62.90;100039.98;2943374;80;21120;-81
2022/05/21 05:11:20;;;;;;;1.07;0.47;;;;;;;19.58;63.15;100043.71;2835159;82;21063;-81
2022/05/21 05:15:21;;;;;;;2.58;0.90;;;;;;;19.49;63.44;100060.02;2931613;80;21023;-81
2022/05/21 05:19:22;;;;;;;1.55;0.42;;;;;;;19.48;63.64;100064.25;2889050;82;21046;-81
2022/05/21 05:23:24;;;;;;;0.70;0.53;;;;;;;19.45;64.81;100047.92;2928771;80;20995;-80
2022/05/21 05:27:25;;;;;;;5.60;0.70;;;;;;;19.59;63.57;100058.87;2915845;80;20979;-81
2022/05/21 05:31:27;;;;;;;1.60;0.93;;;;;;;19.51;63.99;100035.54;2879805;82;21063;-80
2022/05/21 05:35:28;;;;;;;1.92;0.40;;;;;;;19.55;65.67;100057.91;2923612;80;20975;-80
2022/05/21 05:39:30;;;;;;;3.20;0.60;;;;;;;19.61;65.01;100073.00;2881029;82;21027;-80
2022/05/21 05:43:32;;;;;;;2.40;0.85;;;;;;;19.84;64.21;100062.86;2922338;80;21003;-80
2022/05/21 05:47:33;;;;;;;3.42;0.93;;;;;;;20.15;63.74;100085.72;2846360;82;21527;-80
2022/05/21 05:51:35;;;;;;;1.32;0.60;;;;;;;20.29;63.77;100062.36;2917880;80;21012;-80
2022/05/21 05:55:37;;;;;;;1.00;0.40;;;;;;;20.14;62.96;100065.15;2918280;80;21075;-80
2022/05/21 05:59:48;;;;;;;5.50;1.00;;;;;;;20.43;62.47;100066.84;2930129;80;21002;-80
2022/05/21 06:03:50;;;;;;;0.60;0.60;;;;;;;19.99;62.90;100078.20;2898051;81;21585;-79
2022/05/21 06:07:56;;;;;;;2.92;1.57;;;;;;;20.02;63.42;100068.89;2884581;81;21021;-80
2022/05/21 06:11:57;;;;;;;5.35;1.10;;;;;;;19.85;62.02;100081.25;2883891;81;21536;-80
2022/05/21 06:15:59;;;;;;;0.95;0.60;;;;;;;19.34;62.56;100078.09;2876853;81;21011;-80
2022/05/21 06:20:01;;;;;;;0.70;0.70;;;;;;;19.18;63.24;100086.71;2885148;81;21044;-80
2022/05/21 06:24:02;;;;;;;2.35;0.85;;;;;;;19.31;65.20;100096.83;2909878;81;21426;-80
2022/05/21 06:28:06;;;;;;;1.65;0.60;;;;;;;19.53;64.91;100099.08;2909697;80;20958;-80
2022/05/21 06:32:08;;;;;;;4.28;1.40;;;;;;;19.04;64.79;100111.80;2906675;81;21073;-80
2022/05/21 06:36:14;;;;;;;2.27;1.00;;;;;;;18.70;64.81;100113.98;2896531;81;21006;-80
2022/05/21 06:40:17;;;;;;;3.00;1.20;;;;;;;18.84;65.09;100119.06;2900949;81;21005;-80
2022/05/21 06:44:18;;;;;;;3.58;1.50;;;;;;;19.07;65.11;100106.89;2903708;81;21010;-79
2022/05/21 06:48:20;;;;;;;2.55;1.47;;;;;;;19.19;64.19;100119.91;2901193;81;21025;-80
2022/05/21 06:52:24;;;;;;;1.57;1.47;;;;;;;19.41;63.93;100123.00;2880738;81;21005;-80
2022/05/21 06:56:25;;;;;;;1.37;1.27;;;;;;;19.54;63.97;100106.64;2886574;80;20995;-79
2022/05/21 07:00:27;;;;;;;2.25;1.10;;;;;;;19.65;64.83;100124.20;2840923;80;21007;-80
2022/05/21 07:08:49;;;;;;;3.52;0.68;;;;;;;19.08;64.09;100130.12;2916804;80;21007;-80
2022/05/21 07:12:51;;;;;;;1.10;1.00;;;;;;;19.03;66.48;100124.46;2961436;80;21001;-80
2022/05/21 07:16:52;;;;;;;1.85;0.78;;;;;;;19.15;65.92;100123.48;2964086;79;21095;-80
2022/05/21 07:20:55;;;;;;;7.42;1.02;;;;;;;19.26;63.65;100106.84;2905769;80;21510;-79
2022/05/21 07:24:57;;;;;;;2.25;0.70;;;;;;;19.36;62.72;100125.94;2950341;79;21042;-80
2022/05/21 07:28:58;;;;;;;4.97;0.95;;;;;;;19.86;62.47;100126.63;2954841;79;20994;-80
2022/05/21 07:33:00;;;;;;;1.37;0.53;;;;;;;19.94;60.26;100135.98;2939684;78;20987;-81
2022/05/21 07:37:01;;;;;;;1.57;0.72;;;;;;;19.88;60.35;100150.22;2944729;80;21022;-84
2022/05/21 07:41:03;;;;;;;2.75;0.50;;;;;;;19.54;59.45;100139.86;2921281;80;21010;-79
2022/05/21 07:45:08;;;;;;;3.00;1.30;;;;;;;19.61;59.12;100152.59;2961720;80;20995;-81
2022/05/21 07:49:09;;;;;;;1.95;0.82;;;;;;;19.57;59.90;100144.05;2957784;80;21034;-82
2022/05/21 07:53:16;;;;;;;3.70;0.75;;;;;;;19.43;61.02;100150.30;2959561;80;38410;-80
2022/05/21 07:57:18;;;;;;;1.20;0.90;;;;;;;19.68;60.12;100156.22;2893778;79;21022;-81
2022/05/21 08:01:19;;;;;;;10.75;1.82;;;;;;;19.83;59.41;100169.67;2951502;79;21022;-80
2022/05/21 08:05:20;;;;;;;0.98;0.55;;;;;;;19.70;59.61;100157.69;2953799;79;21007;-81
2022/05/21 08:09:22;;;;;;;1.57;0.95;;;;;;;19.59;59.35;100174.38;2967254;79;21018;-81
2022/05/21 08:13:23;;;;;;;6.33;0.90;;;;;;;19.73;59.73;100192.91;2937894;80;20959;-81
2022/05/21 08:17:24;;;;;;;2.60;0.78;;;;;;;19.86;59.91;100181.97;2968349;79;21545;-82
2022/05/21 08:21:26;;;;;;;3.47;0.60;;;;;;;19.69;59.50;100184.34;2968314;79;21022;-79
2022/05/21 08:29:47;;;;;;;0.35;0.33;;;;;;;19.89;57.55;100204.52;2954019;79;21010;-80
2022/05/21 08:33:49;;;;;;;1.85;0.40;;;;;;;20.02;58.05;100172.30;2958494;78;20999;-79
2022/05/21 08:37:50;;;;;;;0.88;0.50;;;;;;;19.83;57.90;100152.95;2953722;79;21002;-82
2022/05/21 08:42:17;;;;;;;1.52;0.50;;;;;;;19.69;60.43;100195.67;2962835;80;21026;-80
2022/05/21 08:46:58;;;;;;;1.17;0.65;;;;;;;19.93;59.28;100197.74;2928447;79;21065;-80
2022/05/21 08:51:04;;;;;;;3.60;1.05;;;;;;;20.26;56.79;100191.34;2946477;79;21040;-79
2022/05/21 08:55:08;;;;;;;8.43;0.90;;;;;;;20.03;57.32;100217.69;2936586;80;20999;-79
2022/05/21 08:59:11;;;;;;;0.80;0.60;;;;;;;19.84;56.97;100218.05;2939909;80;21117;-80
2022/05/21 09:03:17;;;;;;;2.83;0.93;;;;;;;19.33;56.55;100199.13;2928429;79;21490;-80
2022/05/21 09:07:23;;;;;;;3.95;0.93;;;;;;;19.24;57.97;100219.42;2919642;80;21575;-80
2022/05/21 09:11:34;;;;;;;3.22;0.95;;;;;;;19.51;57.20;100188.80;2922673;80;20964;-80
2022/05/21 09:20:04;;;;;;;3.10;0.62;;;;;;;20.08;53.25;100197.20;2941093;80;21031;-80
2022/05/21 09:24:08;;;;;;;1.25;0.70;;;;;;;20.20;52.15;100205.63;2923966;79;20992;-81
2022/05/21 09:28:11;;;;;;;7.05;1.70;;;;;;;19.98;53.21;100206.95;2944190;79;21090;-80
2022/05/21 09:32:27;;;;;;;2.55;0.68;;;;;;;19.82;54.13;100212.00;2929397;79;20968;-81
2022/05/21 09:36:35;;;;;;;2.77;0.85;;;;;;;19.50;55.29;100219.49;2939859;80;21050;-81
2022/05/21 09:40:38;;;;;;;1.65;1.17;;;;;;;19.59;56.39;100195.95;2929466;80;21034;-81
2022/05/21 09:49:18;;;;;;;1.52;1.15;;;;;;;19.55;57.45;100218.42;2922655;80;21108;-81
2022/05/21 09:53:39;;;;;;;2.92;1.05;;;;;;;19.99;54.07;100203.72;2926485;79;20968;-81
2022/05/21 09:57:46;;;;;;;1.17;0.65;;;;;;;19.82;54.34;100224.67;2945728;80;21059;-81
2022/05/21 10:01:53;;;;;;;14.07;3.47;;;;;;;19.90;53.54;100225.09;2941737;80;21054;-81
2022/05/21 10:05:55;;;;;;;7.58;1.67;;;;;;;19.77;54.64;100236.03;2949126;79;21019;-81
2022/05/21 10:14:35;;;;;;;6.33;1.87;;;;;;;19.91;55.75;100231.66;2925955;80;20972;-82
2022/05/21 10:18:49;;;;;;;5.78;1.45;;;;;;;19.70;55.34;100250.78;2922620;80;21689;-81
2022/05/21 10:23:19;;;;;;;1.10;0.70;;;;;;;19.52;55.97;100242.22;2848827;81;21624;-81
2022/05/21 10:27:51;;;;;;;8.88;2.25;;;;;;;19.53;54.88;100262.78;2933790;80;20983;-81
2022/05/21 10:32:19;;;;;;;4.65;0.98;;;;;;;19.74;56.43;100259.34;2882095;82;20999;-81
2022/05/21 10:36:38;;;;;;;6.37;1.35;;;;;;;20.02;54.86;100237.08;2914549;80;21023;-80
2022/05/21 10:40:53;;;;;;;6.42;2.52;;;;;;;20.19;54.92;100254.41;2882758;82;21052;-80
2022/05/21 10:45:29;;;;;;;8.58;2.30;;;;;;;19.99;54.42;100238.81;2911032;80;21034;-81
2022/05/21 10:50:00;;;;;;;2.37;1.00;;;;;;;19.95;53.71;100230.28;2883802;81;21084;-81
2022/05/21 10:54:21;;;;;;;3.58;0.85;;;;;;;20.22;53.24;100234.63;2873154;81;21032;-81
2022/05/21 10:58:46;;;;;;;3.22;1.15;;;;;;;20.51;51.57;100225.26;2889517;81;21039;-80
2022/05/21 11:03:17;;;;;;;9.58;2.10;;;;;;;20.68;51.55;100230.73;2942634;79;21038;-81
2022/05/21 11:07:56;;;;;;;5.65;0.93;;;;;;;20.54;53.03;100234.33;2963582;79;21014;-80
2022/05/21 11:12:09;;;;;;;2.87;1.25;;;;;;;20.40;52.15;100251.74;2937191;80;20995;-81
2022/05/21 11:16:24;;;;;;;2.17;1.57;;;;;;;20.33;52.06;100256.25;2967616;79;21011;-80
2022/05/21 11:20:40;;;;;;;1.42;0.90;;;;;;;20.46;53.05;100260.95;2936800;79;21014;-81
2022/05/21 11:24:51;;;;;;;;;;;;;;;20.65;53.22;100243.78;2953057;79;21015;-81
2022/05/21 11:29:01;;;;;;;3.00;1.45;;;;;;;20.80;52.32;100242.38;2964465;79;20937;-81
2022/05/21 11:37:26;;;;;;;12.07;2.37;;;;;;;21.30;50.97;100230.70;2960321;80;21064;-81
2022/05/21 11:42:05;;;;;;;2.80;1.00;;;;;;;21.52;50.74;100243.12;2962152;80;21035;-81
2022/05/21 11:46:10;;;;;;;10.60;2.62;;;;;;;21.64;51.70;100237.16;2944604;79;21003;-82
2022/05/21 11:50:22;;;;;;;2.15;0.85;;;;;;;21.61;49.52;100247.86;2938252;80;21000;-82
2022/05/21 11:54:49;;;;;;;0.95;0.47;;;;;;;21.77;51.53;100240.47;2966048;78;21004;-81
2022/05/21 11:59:04;;;;;;;5.65;1.07;;;;;;;21.95;51.30;100243.98;2951522;79;21081;-82
2022/05/21 12:03:10;;;;;;;;;;;;;;;21.76;50.33;100232.86;2951396;79;21562;-82
2022/05/21 12:07:43;;;;;;;2.55;0.90;;;;;;;21.86;49.85;100224.89;2947444;79;20126;-82
2022/05/21 12:11:45;;;;;;;16.35;1.95;;;;;;;21.75;51.00;100242.02;2802340;84;21053;-82
2022/05/21 12:15:51;;;;;;;3.30;1.10;;;;;;;21.41;49.99;100245.02;2821465;83;21641;-80
2022/05/21 12:19:58;;;;;;;1.45;0.60;;;;;;;21.35;51.40;100260.70;2795496;84;21064;-82
2022/05/21 12:24:30;;;;;;;2.25;0.90;;;;;;;21.21;52.05;100252.48;2820083;82;21153;-82
2022/05/21 12:28:48;;;;;;;6.72;1.05;;;;;;;21.08;51.11;100230.77;2760310;84;21035;-82
2022/05/21 12:32:50;;;;;;;2.85;1.32;;;;;;;20.96;51.79;100249.40;2758376;86;21058;-83
2022/05/21 12:37:34;;;;;;;11.80;1.60;;;;;;;20.98;52.66;100246.80;2766331;85;21083;-83
2022/05/21 12:41:44;;;;;;;2.10;0.70;;;;;;;21.11;52.21;100246.06;2817726;82;21432;-81
2022/05/21 12:45:49;;;;;;;1.67;0.75;;;;;;;21.62;51.75;100233.81;2820096;79;21056;-82
2022/05/21 12:49:51;;;;;;;;;;;;;;;22.15;51.51;100231.02;2954621;78;21018;-83
2022/05/21 12:53:53;;;;;;;0.70;0.40;;;;;;;21.96;50.42;100226.69;2969825;78;20143;-83
2022/05/21 12:57:58;;;;;;;9.38;1.10;;;;;;;21.78;51.04;100240.79;2970110;79;21104;-84
2022/05/21 13:02:15;;;;;;;1.13;0.67;;;;;;;21.53;51.47;100237.20;2969484;78;21617;-86
2022/05/21 13:06:24;;;;;;;2.95;0.70;;;;;;;21.18;51.33;100220.95;2983856;78;21014;-86
2022/05/21 13:10:33;;;;;;;5.42;0.80;;;;;;;21.00;52.18;100230.89;2977064;79;21038;-86
2022/05/21 13:14:37;;;;;;;1.42;0.82;;;;;;;20.83;53.01;100226.62;2978774;76;20994;-86
2022/05/21 13:19:09;;;;;;;1.20;0.75;;;;;;;20.96;53.21;100212.36;2981626;79;20995;-80
2022/05/21 13:23:46;;;;;;;5.92;1.17;;;;;;;21.36;52.28;100203.70;2981738;79;21026;-86
2022/05/21 13:27:52;;;;;;;1.47;0.62;;;;;;;21.68;52.20;100218.97;2980753;79;21553;-84
2022/05/21 13:31:54;;;;;;;2.92;0.80;;;;;;;22.03;50.77;100199.64;2976593;78;21609;-81
2022/05/21 13:36:00;;;;;;;6.50;0.90;;;;;;;22.18;49.44;100183.20;2974159;79;21025;-81
2022/05/21 13:40:07;;;;;;;;;;;;;;;22.29;48.63;100198.88;2991348;78;20994;-80
2022/05/21 13:44:16;;;;;;;1.40;0.50;;;;;;;22.23;48.22;100186.97;2968862;78;20084;-81
2022/05/21 13:48:21;;;;;;;1.10;0.68;;;;;;;22.40;47.77;100186.08;2974838;78;20988;-81
2022/05/21 13:52:25;;;;;;;4.03;1.07;;;;;;;22.31;47.91;100179.17;2980545;79;21545;-81
2022/05/21 13:56:39;;;;;;;4.92;0.72;;;;;;;22.44;49.59;100189.19;2964052;78;21022;-81
2022/05/21 14:00:41;;;;;;;2.10;1.55;;;;;;;22.60;49.70;100189.36;2971755;79;21021;-83
2022/05/21 14:04:43;;;;;;;1.87;1.47;;;;;;;22.85;48.85;100167.03;2843686;80;21489;-83
2022/05/21 14:09:02;;;;;;;3.15;1.07;;;;;;;22.60;47.63;100173.61;2945146;80;21014;-80
2022/05/21 14:13:05;;;;;;;2.25;1.10;;;;;;;22.43;47.63;100184.81;2945744;79;20995;-80
2022/05/21 14:17:33;;;;;;;1.80;1.20;;;;;;;22.08;48.58;100199.34;2942216;80;21083;-80
2022/05/21 14:21:37;;;;;;;1.17;0.98;;;;;;;21.71;49.51;100194.73;2935124;80;21030;-82
2022/05/21 14:25:38;;;;;;;6.92;1.27;;;;;;;21.30;50.40;100195.55;2918665;79;21027;-83
2022/05/21 14:29:45;;;;;;;2.45;1.35;;;;;;;20.90;51.81;100182.07;2929344;80;22278;-82
2022/05/21 14:34:01;;;;;;;3.55;0.82;;;;;;;20.59;52.16;100198.09;2924584;80;20995;-80
2022/05/21 14:38:02;;;;;;;;;;;;;;;20.42;52.81;100189.43;2950628;80;21015;-82
2022/05/21 14:42:04;;;;;;;3.75;1.45;;;;;;;20.66;53.32;100195.45;2920043;80;20095;-84
2022/05/21 14:47:51;;;;;;;5.08;1.42;;;;;;;20.86;52.95;100185.36;2938053;80;21043;-87
2022/05/21 14:54:33;;;;;;;10.35;0.80;;;;;;;20.67;51.84;100225.50;2869276;82;21059;-88
2022/05/21 14:58:35;;;;;;;2.60;1.02;;;;;;;20.55;50.44;100217.08;2922860;79;21074;-88
2022/05/21 15:02:36;;;;;;;4.50;0.95;;;;;;;20.30;50.50;100219.32;2896445;82;21049;-84
2022/05/21 15:06:40;;;;;;;1.45;0.60;;;;;;;20.43;51.97;100211.86;2943213;80;21045;-84
2022/05/21 15:10:41;;;;;;;3.05;1.10;;;;;;;20.66;51.92;100196.31;2819110;82;21060;-84
2022/05/21 15:14:43;;;;;;;4.42;1.70;;;;;;;21.03;52.17;100203.46;2890025;81;21635;-84
2022/05/21 15:18:44;;;;;;;1.35;1.05;;;;;;;20.64;52.22;100209.18;2854905;82;20978;-82
2022/05/21 15:22:48;;;;;;;1.20;1.02;;;;;;;20.71;54.38;100193.00;2873578;82;21015;-82
2022/05/21 15:26:50;;;;;;;2.27;1.00;;;;;;;20.94;54.01;100190.10;2869250;82;21117;-83
2022/05/21 15:30:55;;;;;;;2.90;1.07;;;;;;;21.01;53.46;100181.19;2911598;80;20966;-90
2022/05/21 15:34:55;;;;;;;5.25;1.70;;;;;;;21.00;53.46;100174.11;2857622;82;21043;-84
2022/05/21 15:38:57;;;;;;;2.27;1.15;;;;;;;20.93;53.41;100168.16;2938489;80;21014;-83
2022/05/21 15:42:58;;;;;;;2.02;1.67;;;;;;;20.94;53.25;100165.77;2847451;82;21607;-83
2022/05/21 15:47:01;;;;;;;1.57;1.12;;;;;;;20.89;53.14;100175.50;2870608;82;21005;-87
2022/05/21 15:51:04;;;;;;;1.80;1.62;;;;;;;20.91;53.81;100183.74;2888004;80;21053;-83
2022/05/21 15:55:06;;;;;;;2.45;0.93;;;;;;;20.89;52.50;100169.59;2925706;80;21037;-83
2022/05/21 15:59:07;;;;;;;4.12;1.95;;;;;;;20.68;54.01;100162.31;2940327;80;20995;-83
2022/05/21 16:03:09;;;;;;;7.35;1.00;;;;;;;20.48;53.91;100162.16;2941916;80;21022;-83
2022/05/21 16:07:10;;;;;;;1.35;0.70;;;;;;;20.59;53.63;100154.86;2970052;76;20991;-83
2022/05/21 16:11:22;;;;;;;0.65;0.65;;;;;;;20.76;51.44;100148.67;2964239;79;21062;-82
2022/05/21 16:15:28;;;;;;;1.17;0.78;;;;;;;20.63;51.32;100142.63;2962834;79;21015;-82
2022/05/21 16:19:29;;;;;;;3.47;0.90;;;;;;;20.46;51.53;100146.67;2959473;79;21034;-82
2022/05/21 16:23:30;;;;;;;3.17;1.85;;;;;;;20.41;52.49;100136.44;2952919;78;21002;-82
2022/05/21 16:27:32;;;;;;;10.78;1.22;;;;;;;20.51;52.84;100143.67;2962861;78;21090;-83
2022/05/21 16:31:33;;;;;;;4.08;1.00;;;;;;;20.46;52.25;100143.44;2983337;78;21010;-83
2022/05/21 16:35:35;;;;;;;5.62;1.02;;;;;;;20.26;52.88;100137.87;2982267;79;20981;-82
2022/05/21 16:39:36;;;;;;;4.30;1.22;;;;;;;20.11;53.11;100164.91;2944812;78;21022;-83
2022/05/21 16:43:37;;;;;;;1.65;1.02;;;;;;;20.09;53.88;100138.62;2956767;79;21036;-80
2022/05/21 16:47:38;;;;;;;3.33;1.10;;;;;;;20.21;53.71;100138.94;2964897;79;21077;-81
2022/05/21 16:51:40;;;;;;;1.27;0.93;;;;;;;20.02;53.76;100168.23;2941477;79;21077;-91
2022/05/21 16:55:42;;;;;;;1.00;0.90;;;;;;;19.81;54.76;100140.16;2959716;79;21569;-82
2022/05/21 16:59:46;;;;;;;3.80;1.30;;;;;;;19.48;55.32;100173.48;2901076;80;21030;-84
2022/05/21 17:03:52;;;;;;;3.85;1.00;;;;;;;19.27;55.66;100162.95;2888893;79;21765;-83
2022/05/21 17:07:54;;;;;;;;;;;;;;;19.09;56.16;100176.80;2940986;79;21010;-81
2022/05/21 17:11:55;;;;;;;1.82;1.00;;;;;;;19.07;56.43;100167.54;2965051;79;20088;-83
2022/05/21 17:15:57;;;;;;;3.87;1.25;;;;;;;18.97;57.35;100167.78;2929820;80;21003;-83
2022/05/21 17:19:58;;;;;;;3.15;1.92;;;;;;;18.96;57.47;100175.53;2942024;79;21842;-84
2022/05/21 17:24:02;;;;;;;2.58;1.67;;;;;;;18.90;57.72;100170.89;2932540;79;21045;-84
2022/05/21 17:32:23;;;;;;;2.83;1.60;;;;;;;18.79;57.77;100168.63;2923476;80;21018;-84
2022/05/21 17:36:25;;;;;;;7.83;2.52;;;;;;;18.76;58.25;100180.59;2958981;79;22123;-84
2022/05/21 17:40:27;;;;;;;8.03;0.90;;;;;;;18.52;61.33;100212.11;2958066;78;21072;-84
2022/05/21 17:44:29;;;;;;;1.82;1.60;;;;;;;17.90;66.07;100258.73;2955930;80;21062;-84
2022/05/21 17:48:30;;;;;;;1.47;1.37;;;;;;;17.21;68.86;100246.14;2935699;78;21054;-84
2022/05/21 17:52:33;;;;;;;1.75;1.30;;;;;;;16.69;70.76;100241.95;2960424;80;21038;-89
2022/05/21 17:56:35;;;;;;;4.45;1.60;;;;;;;16.35;74.31;100246.44;2893639;81;21089;-81
2022/05/21 18:00:39;;;;;;;3.33;1.85;;;;;;;16.07;75.90;100234.61;2905848;80;21023;-81
2022/05/21 18:04:40;;;;;;;8.95;4.12;;;;;;;15.86;77.09;100232.34;2880802;82;21062;-81
2022/05/21 18:08:42;;;;;;;1.90;1.65;;;;;;;15.73;78.62;100237.31;2909541;81;20984;-81
2022/05/21 18:12:44;;;;;;;5.55;1.82;;;;;;;15.68;78.69;100225.72;2890078;81;21563;-81
2022/05/21 18:21:09;;;;;;;2.80;2.60;;;;;;;15.54;79.03;100234.73;2867794;82;21063;-81
2022/05/21 18:25:10;;;;;;;6.95;2.77;;;;;;;15.44;79.46;100258.11;2906964;80;21054;-81
2022/05/21 18:29:12;;;;;;;5.03;1.85;;;;;;;15.39;78.75;100268.47;2913515;81;21044;-81
2022/05/21 18:33:17;;;;;;;9.08;2.77;;;;;;;15.40;77.26;100276.86;2916268;81;21072;-81
2022/05/21 18:37:19;;;;;;;4.70;2.15;;;;;;;15.52;78.25;100283.61;2933157;80;21053;-81
2022/05/21 18:41:27;;;;;;;6.62;2.75;;;;;;;15.45;81.53;100267.83;2917332;79;21024;-81
2022/05/21 18:45:26;;;;;;;2.42;2.22;;;;;;;15.31;82.99;100257.20;2945558;80;21015;-82
2022/05/21 18:49:28;;;;;;;5.35;2.55;;;;;;;15.26;83.52;100253.64;2893088;82;21038;-82
2022/05/21 18:53:30;;;;;;;3.00;2.25;;;;;;;15.10;84.06;100254.86;2915611;81;21579;-81
2022/05/21 18:57:32;;;;;;;3.60;2.50;;;;;;;14.98;84.30;100257.81;2940574;80;21027;-82
2022/05/21 19:01:37;;;;;;;6.70;3.47;;;;;;;15.01;83.30;100255.81;2918516;80;20987;-82
2022/05/21 19:05:39;;;;;;;6.55;2.95;;;;;;;15.01;83.38;100265.19;2946250;79;21078;-81
2022/05/21 19:09:41;;;;;;;6.87;3.70;;;;;;;15.02;82.96;100265.02;2960599;79;21002;-82
2022/05/21 19:13:47;;;;;;;7.33;4.00;;;;;;;15.02;82.74;100265.53;2966009;80;21031;-81
2022/05/21 19:17:48;;;;;;;;;;;;;;;14.98;82.84;100267.19;2944894;79;21030;-82
2022/05/21 19:21:56;;;;;;;4.97;4.37;;;;;;;14.89;83.62;100269.95;2897501;80;20142;-82
2022/05/21 19:25:57;;;;;;;6.62;3.85;;;;;;;14.73;84.32;100274.16;2914734;81;21006;-81
2022/05/21 19:29:58;;;;;;;3.50;3.05;;;;;;;14.66;84.15;100272.55;2900946;81;21045;-81
2022/05/21 19:33:59;;;;;;;7.40;2.70;;;;;;;14.67;83.88;100268.06;2816001;80;21034;-81
2022/05/21 19:38:01;;;;;;;12.18;3.15;;;;;;;14.70;83.69;100275.27;2921712;81;21089;-81
2022/05/21 19:42:03;;;;;;;5.22;2.75;;;;;;;14.77;83.17;100270.69;2887613;81;21069;-83
2022/05/21 19:46:06;;;;;;;4.20;2.20;;;;;;;14.78;82.65;100270.52;2909107;80;21014;-80
2022/05/21 19:50:07;;;;;;;3.60;3.00;;;;;;;14.82;82.21;100269.72;2936161;80;21011;-81
2022/05/21 19:54:09;;;;;;;4.30;2.65;;;;;;;14.85;81.99;100268.07;2931004;80;20991;-82
2022/05/21 19:58:10;;;;;;;4.45;2.50;;;;;;;14.84;81.63;100267.73;2938190;80;21051;-82